createdAt,value
2022-12-17T00:01:40.946Z,95760.47
2022-12-17T00:06:42.428Z,95758.78
2022-12-17T00:11:43.893Z,95755.84
2022-12-17T00:16:45.364Z,95764.34
2022-12-17T00:21:46.883Z,95770.78
2022-12-17T00:26:48.324Z,95776.94
2022-12-17T00:31:49.876Z,95778.16
2022-12-17T00:36:51.460Z,95797.63
2022-12-17T00:41:53.555Z,95793.75
2022-12-17T00:46:55.186Z,95805.88
2022-12-17T00:51:57.161Z,95815.22
2022-12-17T00:56:59.021Z,95821.53
2022-12-17T01:02:00.589Z,95822.13
2022-12-17T01:07:02.179Z,95829.16
2022-12-17T01:12:05.304Z,95835.09
2022-12-17T01:17:07.030Z,95841.56
2022-12-17T01:22:09.109Z,95853.25
2022-12-17T01:27:11.733Z,95852.34
2022-12-17T01:32:13.260Z,95862.31
2022-12-17T01:37:14.829Z,95867.78
2022-12-17T01:42:16.268Z,95878.19
2022-12-17T01:47:20.926Z,95872.63
2022-12-17T01:52:23.022Z,95868.44
2022-12-17T01:57:25.775Z,95882.44
2022-12-17T02:02:27.350Z,95871.84
2022-12-17T02:07:40.259Z,95883.72
2022-12-17T02:12:51.003Z,95890.78
2022-12-17T02:17:58.047Z,95888.34
2022-12-17T02:23:29.481Z,95886.31
2022-12-17T02:28:34.074Z,95894.97
2022-12-17T02:33:37.871Z,95891.47
2022-12-17T02:38:40.586Z,95893.91
2022-12-17T02:43:42.458Z,95910.81
2022-12-17T02:48:43.957Z,95895.88
2022-12-17T02:53:51.272Z,95905.91
2022-12-17T02:58:52.765Z,95909.63
2022-12-17T03:03:54.454Z,95911.78
2022-12-17T03:08:56.840Z,95911.78
2022-12-17T03:13:58.959Z,95922.31
2022-12-17T03:19:01.006Z,95921.53
2022-12-17T03:24:02.446Z,95916.41
2022-12-17T03:29:03.981Z,95910.09
2022-12-17T03:34:05.444Z,95922.66
2022-12-17T03:39:07.076Z,95928.44
2022-12-17T03:44:08.525Z,95934.41
2022-12-17T03:49:10.357Z,95943.63
2022-12-17T03:54:11.912Z,95944.00
2022-12-17T03:59:13.781Z,95945.03
2022-12-17T04:04:15.265Z,95941.19
2022-12-17T04:09:16.769Z,95947.78
2022-12-17T04:14:18.327Z,95951.00
2022-12-17T04:19:19.815Z,95960.16
2022-12-17T04:24:21.324Z,95967.78
2022-12-17T04:29:22.835Z,95973.41
2022-12-17T04:34:24.321Z,95981.06
2022-12-17T04:39:25.738Z,95977.56
2022-12-17T04:44:27.168Z,95978.94
2022-12-17T04:49:28.613Z,95991.84
2022-12-17T04:54:30.126Z,95991.31
2022-12-17T04:59:31.656Z,95998.25
2022-12-17T05:04:34.605Z,96001.47
2022-12-17T05:09:36.060Z,96003.16
2022-12-17T05:14:37.472Z,96007.69
2022-12-17T05:19:39.038Z,96013.81
2022-12-17T05:24:40.476Z,96011.81
2022-12-17T05:29:42.028Z,96012.44
2022-12-17T05:34:43.509Z,96017.81
2022-12-17T05:39:44.964Z,96021.47
2022-12-17T05:44:46.443Z,96028.50
2022-12-17T05:49:47.924Z,96033.59
2022-12-17T05:54:49.385Z,96029.75
2022-12-17T05:59:50.812Z,96037.78
2022-12-17T06:04:52.241Z,96044.59
2022-12-17T06:09:53.663Z,96040.97
2022-12-17T06:14:55.076Z,96053.84
2022-12-17T06:19:56.543Z,96055.84
2022-12-17T06:24:58.048Z,96068.34
2022-12-17T06:29:59.511Z,96070.94
2022-12-17T06:35:00.933Z,96066.16
2022-12-17T06:40:02.461Z,96066.78
2022-12-17T06:45:04.246Z,96078.13
2022-12-17T06:50:06.351Z,96084.00
2022-12-17T06:55:08.250Z,96085.91
2022-12-17T07:00:10.384Z,96096.19
2022-12-17T07:05:11.928Z,96106.91
2022-12-17T07:10:14.524Z,96115.91
2022-12-17T07:15:16.220Z,96117.41
2022-12-17T07:20:17.645Z,96131.41
2022-12-17T07:25:19.114Z,96129.63
2022-12-17T07:30:20.630Z,96126.97
2022-12-17T07:35:22.204Z,96132.09
2022-12-17T07:40:23.686Z,96129.16
2022-12-17T07:45:25.377Z,96148.25
2022-12-17T07:50:26.981Z,96151.44
2022-12-17T07:55:28.567Z,96154.00
2022-12-17T08:00:30.147Z,96168.75
2022-12-17T08:05:31.547Z,96165.31
2022-12-17T08:10:33.026Z,96172.41
2022-12-17T08:15:34.432Z,96182.00
2022-12-17T08:20:35.852Z,96186.59
2022-12-17T08:25:37.322Z,96191.63
2022-12-17T08:30:38.895Z,96194.88
2022-12-17T08:35:40.426Z,96202.44
2022-12-17T08:40:41.847Z,96220.31
2022-12-17T08:45:50.426Z,96225.81
2022-12-17T08:50:52.328Z,96225.81
2022-12-17T08:55:53.764Z,96241.97
2022-12-17T09:00:59.261Z,96245.31
2022-12-17T09:06:00.791Z,96255.34
2022-12-17T09:11:02.282Z,96268.31
2022-12-17T09:16:03.946Z,96275.06
2022-12-17T09:21:05.650Z,96284.25
2022-12-17T09:26:07.311Z,96295.84
2022-12-17T09:31:08.963Z,96289.28
2022-12-17T09:36:10.562Z,96297.56
2022-12-17T09:41:31.890Z,96297.09
2022-12-17T09:46:45.134Z,96290.72
2022-12-17T09:51:46.749Z,96280.19
2022-12-17T09:56:49.099Z,96280.97
2022-12-17T10:01:50.679Z,96274.06
2022-12-17T10:06:52.233Z,96266.91
2022-12-17T10:11:54.525Z,96263.53
2022-12-17T10:16:56.014Z,96252.66
2022-12-17T10:22:07.441Z,96256.03
2022-12-17T10:27:10.524Z,96254.25
2022-12-17T10:32:14.927Z,96259.13
2022-12-17T10:37:20.630Z,96259.28
2022-12-17T10:42:28.082Z,96266.88
2022-12-17T10:47:33.777Z,96262.41
2022-12-17T10:52:36.773Z,96265.91
2022-12-17T10:57:38.702Z,96264.81
2022-12-17T11:02:48.248Z,96261.78
2022-12-17T11:07:50.036Z,96263.47
2022-12-17T11:12:56.386Z,96272.31
2022-12-17T11:17:58.767Z,96273.03
2022-12-17T11:23:01.029Z,96275.34
2022-12-17T11:28:15.370Z,96281.31
2022-12-17T11:33:21.711Z,96278.88
2022-12-17T11:38:44.160Z,96267.94
2022-12-17T11:43:59.964Z,96270.97
2022-12-17T11:49:14.186Z,96272.53
2022-12-17T11:54:27.017Z,96277.38
2022-12-17T11:59:31.565Z,96272.94
2022-12-17T12:05:05.117Z,96268.47
2022-12-17T12:10:19.440Z,96280.41
2022-12-17T12:15:53.989Z,96265.81
2022-12-17T12:21:25.476Z,96265.75
2022-12-17T12:26:50.368Z,96267.75
2022-12-17T12:32:13.459Z,96264.44
2022-12-17T12:37:18.134Z,96274.81
2022-12-17T12:42:25.059Z,96276.59
2022-12-17T12:47:45.971Z,96285.16
2022-12-17T12:52:47.724Z,96275.09
2022-12-17T12:58:23.015Z,96277.88
2022-12-17T13:03:31.173Z,96276.22
2022-12-17T13:08:34.731Z,96279.63
2022-12-17T13:13:42.419Z,96273.53
2022-12-17T13:18:43.907Z,96273.94
2022-12-17T13:23:45.372Z,96276.25
2022-12-17T13:29:28.910Z,96274.84
2022-12-17T13:34:42.446Z,96281.44
2022-12-17T13:40:15.870Z,96289.47
2022-12-17T13:45:21.940Z,96300.16
2022-12-17T13:50:35.613Z,96297.41
2022-12-17T13:55:38.107Z,96305.22
2022-12-17T14:00:39.560Z,96313.19
2022-12-17T14:05:44.287Z,96315.31
2022-12-17T14:10:54.403Z,96318.84
2022-12-17T14:15:55.855Z,96324.25
2022-12-17T14:20:57.402Z,96329.72
2022-12-17T14:25:59.424Z,96330.72
2022-12-17T14:31:28.736Z,96331.97
2022-12-17T14:36:32.023Z,96326.69
2022-12-17T14:41:37.817Z,96319.72
2022-12-17T14:46:39.310Z,96317.13
2022-12-17T14:51:42.483Z,96311.19
2022-12-17T14:56:46.458Z,96321.13
2022-12-17T15:01:54.152Z,96329.03
2022-12-17T15:06:57.348Z,96334.41
2022-12-17T15:11:58.821Z,96340.94
2022-12-17T15:17:00.330Z,96347.13
2022-12-17T15:22:03.934Z,96352.56
2022-12-17T15:27:05.439Z,96362.31
2022-12-17T15:32:06.977Z,96366.72
2022-12-17T15:37:08.464Z,96366.63
2022-12-17T15:42:10.141Z,96370.91
2022-12-17T15:47:11.635Z,96374.53
2022-12-17T15:52:13.148Z,96384.13
2022-12-17T15:57:18.570Z,96377.16
2022-12-17T16:02:20.502Z,96378.81
2022-12-17T16:07:22.099Z,96367.63
2022-12-17T16:12:23.531Z,96365.97
2022-12-17T16:17:25.015Z,96370.00
2022-12-17T16:22:27.974Z,96365.66
2022-12-17T16:27:29.462Z,96352.59
2022-12-17T16:32:36.091Z,96348.47
2022-12-17T16:37:38.144Z,96362.94
2022-12-17T16:42:39.603Z,96375.66
2022-12-17T16:47:41.051Z,96378.53
2022-12-17T16:52:42.460Z,96382.91
2022-12-17T16:57:43.953Z,96386.28
2022-12-17T17:02:49.879Z,96384.28
2022-12-17T17:07:54.366Z,96377.03
2022-12-17T17:12:55.927Z,96373.78
2022-12-17T17:18:02.027Z,96387.03
2022-12-17T17:23:04.372Z,96396.56
2022-12-17T17:28:05.851Z,96397.69
2022-12-17T17:33:07.347Z,96408.84
2022-12-17T17:38:08.813Z,96402.59
2022-12-17T17:43:10.249Z,96411.03
2022-12-17T17:48:11.709Z,96401.41
2022-12-17T17:53:13.130Z,96399.63
2022-12-17T17:58:14.581Z,96406.47
2022-12-17T18:03:16.133Z,96411.00
2022-12-17T18:08:17.702Z,96425.59
2022-12-17T18:13:19.161Z,96418.34
2022-12-17T18:18:20.588Z,96420.97
2022-12-17T18:23:22.024Z,96433.13
2022-12-17T18:28:23.483Z,96423.84
2022-12-17T18:33:24.916Z,96429.81
2022-12-17T18:38:26.403Z,96422.91
2022-12-17T18:43:27.819Z,96432.47
2022-12-17T18:48:29.411Z,96433.31
2022-12-17T18:53:30.848Z,96448.03
2022-12-17T18:58:32.312Z,96444.59
2022-12-17T19:03:34.068Z,96444.66
2022-12-17T19:08:36.077Z,96446.13
2022-12-17T19:13:38.191Z,96442.47
2022-12-17T19:18:40.646Z,96444.28
2022-12-17T19:23:42.288Z,96452.91
2022-12-17T19:28:46.358Z,96457.16
2022-12-17T19:33:47.976Z,96459.75
2022-12-17T19:38:54.351Z,96467.56
2022-12-17T19:43:58.098Z,96465.66
2022-12-17T19:49:00.005Z,96471.59
2022-12-17T19:54:08.115Z,96484.63
2022-12-17T19:59:12.336Z,96483.47
2022-12-17T20:04:15.523Z,96479.97
2022-12-17T20:09:17.017Z,96488.44
2022-12-17T20:14:22.365Z,96495.03
2022-12-17T20:19:26.830Z,96513.56
2022-12-17T20:24:31.509Z,96503.91
2022-12-17T20:29:33.163Z,96510.06
2022-12-17T20:34:34.700Z,96509.31
2022-12-17T20:39:36.228Z,96506.06
2022-12-17T20:44:37.709Z,96501.00
2022-12-17T20:49:39.198Z,96506.41
2022-12-17T20:54:40.612Z,96506.22
2022-12-17T20:59:42.061Z,96517.34
2022-12-17T21:04:43.594Z,96529.56
2022-12-17T21:09:45.098Z,96516.59
2022-12-17T21:14:46.526Z,96529.72
2022-12-17T21:19:48.000Z,96530.59
2022-12-17T21:24:49.530Z,96535.06
2022-12-17T21:29:51.019Z,96543.84
2022-12-17T21:34:52.536Z,96537.88
2022-12-17T21:39:59.618Z,96539.72
2022-12-17T21:45:01.459Z,96538.66
2022-12-17T21:50:03.406Z,96531.16
2022-12-17T21:55:05.361Z,96530.13
2022-12-17T22:00:07.964Z,96525.84
2022-12-17T22:05:12.614Z,96533.66
2022-12-17T22:10:24.312Z,96529.28
2022-12-17T22:15:48.182Z,96542.56
2022-12-17T22:20:58.583Z,96550.53
2022-12-17T22:26:00.088Z,96548.16
2022-12-17T22:31:06.102Z,96538.56
2022-12-17T22:38:49.490Z,96540.03
2022-12-17T22:44:49.155Z,96541.13
2022-12-17T22:46:52.031Z,96536.97
2022-12-17T22:51:53.547Z,96526.78
2022-12-17T22:57:20.941Z,96522.34
2022-12-17T23:02:16.642Z,96526.78
2022-12-17T23:07:18.244Z,96536.28
2022-12-17T23:12:19.723Z,96533.91
2022-12-17T23:17:21.215Z,96535.69
2022-12-17T23:22:22.662Z,96534.16
2022-12-17T23:27:24.185Z,96531.44
2022-12-17T23:32:26.246Z,96541.03
2022-12-17T23:37:27.665Z,96545.66
2022-12-17T23:42:29.118Z,96544.69
2022-12-17T23:47:31.391Z,96543.00
2022-12-17T23:52:32.883Z,96547.13
2022-12-17T23:57:34.300Z,96563.41
